Time;durP1;ratioP1;P1;durP2;ratioP2;P2;SDS_P1;SDS_P2;PMS_P1;PMS_P2;Temp;Humidity;BMP_temperature;BMP_pressure;BME280_temperature;BME280_humidity;BME280_pressure;Samples;Min_cycle;Max_cycle;Signal;HPM_P1;HPM_P2
2021/03/18 00:00:13;;;;;;;8.97;5.60;;;2.00;99.90;;;;;;4172542;28;20319;-62
2021/03/18 00:02:14;;;;;;;8.70;5.67;;;2.00;99.90;;;;;;4171530;28;20670;-57
2021/03/18 00:04:19;;;;;;;8.57;5.17;;;2.00;99.90;;;;;;4172092;28;20316;-55
2021/03/18 00:06:20;;;;;;;10.93;6.03;;;2.00;99.90;;;;;;4172520;28;21090;-58
2021/03/18 00:08:22;;;;;;;10.50;6.00;;;2.00;99.90;;;;;;4171879;28;20262;-55
2021/03/18 00:10:23;;;;;;;9.93;5.27;;;2.00;99.90;;;;;;4172016;28;20258;-59
2021/03/18 00:12:25;;;;;;;10.73;6.20;;;2.00;99.90;;;;;;4171990;28;20343;-56
2021/03/18 00:14:27;;;;;;;11.10;6.27;;;2.00;99.90;;;;;;4171708;28;20282;-58
2021/03/18 00:16:28;;;;;;;10.90;6.50;;;2.00;99.90;;;;;;4171638;28;20403;-59
2021/03/18 00:18:32;;;;;;;12.40;6.50;;;2.00;99.90;;;;;;4172662;28;20278;-58
2021/03/18 00:20:34;;;;;;;15.17;6.43;;;1.90;99.90;;;;;;4171746;28;20281;-59
2021/03/18 00:22:43;;;;;;;13.23;7.03;;;1.90;99.90;;;;;;4172462;28;20277;-61
2021/03/18 00:24:44;;;;;;;13.73;7.33;;;1.90;99.90;;;;;;4172479;28;20395;-62
2021/03/18 00:26:45;;;;;;;15.47;7.10;;;1.90;99.90;;;;;;4171824;28;20328;-58
2021/03/18 00:28:46;;;;;;;11.43;6.50;;;1.90;99.90;;;;;;4170983;28;20746;-58
2021/03/18 00:30:48;;;;;;;14.57;6.53;;;1.90;99.90;;;;;;4173197;28;20316;-56
2021/03/18 00:32:51;;;;;;;11.50;6.63;;;1.90;99.90;;;;;;4174380;28;20692;-64
2021/03/18 00:34:52;;;;;;;12.97;6.83;;;1.80;99.90;;;;;;4175181;28;20273;-60
2021/03/18 00:36:53;;;;;;;12.03;6.57;;;1.80;99.90;;;;;;4174349;28;20351;-60
2021/03/18 00:38:54;;;;;;;12.07;6.63;;;1.90;99.90;;;;;;4174944;28;20266;-60
2021/03/18 00:41:01;;;;;;;11.70;6.50;;;1.80;99.90;;;;;;4174494;28;20782;-58
2021/03/18 00:43:05;;;;;;;14.97;6.90;;;1.80;99.90;;;;;;4174126;28;20328;-55
2021/03/18 00:45:07;;;;;;;13.07;5.90;;;1.80;99.90;;;;;;4174018;28;20274;-57
2021/03/18 00:47:08;;;;;;;11.87;6.83;;;1.80;99.90;;;;;;4174562;28;20681;-60
2021/03/18 00:49:09;;;;;;;15.80;7.57;;;1.80;99.90;;;;;;4175472;28;20274;-57
2021/03/18 00:51:14;;;;;;;13.30;6.47;;;1.80;99.90;;;;;;4174070;28;20278;-57
2021/03/18 00:53:19;;;;;;;12.10;7.47;;;1.80;99.90;;;;;;4174535;28;20274;-58
2021/03/18 00:55:20;;;;;;;12.47;6.77;;;1.80;99.90;;;;;;4174419;28;20258;-53
2021/03/18 00:57:23;;;;;;;15.60;7.97;;;1.80;99.90;;;;;;4174606;28;20846;-58
2021/03/18 00:59:24;;;;;;;12.37;6.80;;;1.80;99.90;;;;;;4174378;28;20339;-55
2021/03/18 01:01:26;;;;;;;15.73;7.90;;;1.70;99.90;;;;;;4174837;28;20652;-55
2021/03/18 01:03:30;;;;;;;12.27;7.40;;;1.70;99.90;;;;;;4173972;28;20262;-57
2021/03/18 01:05:33;;;;;;;11.63;7.57;;;1.80;99.90;;;;;;4175631;28;20297;-61
2021/03/18 01:07:36;;;;;;;11.47;7.00;;;1.70;99.90;;;;;;4173967;28;20734;-54
2021/03/18 01:09:37;;;;;;;13.07;7.13;;;1.70;99.90;;;;;;4174728;28;20258;-54
2021/03/18 01:11:39;;;;;;;17.53;9.23;;;1.70;99.90;;;;;;4173840;28;20262;-59
2021/03/18 01:13:47;;;;;;;15.27;7.67;;;1.70;99.90;;;;;;4174458;28;20266;-57
2021/03/18 01:16:19;;;;;;;15.83;7.73;;;1.70;99.90;;;;;;4173703;28;20665;-59
2021/03/18 01:18:23;;;;;;;14.63;8.10;;;1.70;99.90;;;;;;4173601;28;20692;-58
2021/03/18 01:20:24;;;;;;;17.37;8.27;;;1.70;99.90;;;;;;4173945;28;20266;-55
2021/03/18 01:22:25;;;;;;;14.73;8.20;;;1.60;99.90;;;;;;4174407;28;20315;-54
2021/03/18 01:24:27;;;;;;;16.23;8.67;;;1.60;99.90;;;;;;4173849;28;20274;-58
2021/03/18 01:26:28;;;;;;;16.80;8.53;;;1.60;99.90;;;;;;4174149;28;20282;-59
2021/03/18 01:28:30;;;;;;;16.10;8.50;;;1.60;99.90;;;;;;4174072;28;20258;-58
2021/03/18 01:30:32;;;;;;;16.40;8.47;;;1.60;99.90;;;;;;4174237;28;20270;-58
2021/03/18 01:32:33;;;;;;;16.20;8.13;;;1.60;99.90;;;;;;4173928;28;21253;-58
2021/03/18 01:34:34;;;;;;;16.03;7.20;;;1.50;99.90;;;;;;4174037;28;21095;-58
2021/03/18 01:36:36;;;;;;;13.23;7.87;;;1.60;99.90;;;;;;4175065;28;20336;-59
2021/03/18 01:38:39;;;;;;;13.00;7.77;;;1.60;99.90;;;;;;4173864;28;20273;-61
2021/03/18 01:40:40;;;;;;;17.27;8.57;;;1.60;99.90;;;;;;4173602;28;20258;-57
2021/03/18 01:42:42;;;;;;;14.10;6.90;;;1.60;99.90;;;;;;4173626;28;20254;-58
2021/03/18 01:44:43;;;;;;;15.47;7.67;;;1.60;99.90;;;;;;4174488;28;20262;-58
2021/03/18 01:46:44;;;;;;;13.43;8.00;;;1.60;99.90;;;;;;4173640;28;20270;-52
2021/03/18 01:48:46;;;;;;;15.93;8.57;;;1.60;99.90;;;;;;4174136;28;20308;-61
2021/03/18 01:50:51;;;;;;;18.77;9.37;;;1.60;99.90;;;;;;4173298;28;20299;-56
2021/03/18 01:52:53;;;;;;;14.70;8.40;;;1.60;99.90;;;;;;4173196;28;20320;-60
2021/03/18 01:54:55;;;;;;;17.53;9.23;;;1.60;99.90;;;;;;4174542;28;20665;-58
2021/03/18 01:56:58;;;;;;;15.70;8.67;;;1.60;99.90;;;;;;4173101;28;20769;-58
2021/03/18 01:58:59;;;;;;;14.53;7.70;;;1.60;99.90;;;;;;4173094;28;20250;-60
2021/03/18 02:01:08;;;;;;;15.47;8.37;;;1.60;99.90;;;;;;4173623;28;20307;-60
2021/03/18 02:03:09;;;;;;;18.17;9.40;;;1.60;99.90;;;;;;4173334;28;20262;-59
2021/03/18 02:05:11;;;;;;;14.40;8.43;;;1.60;99.90;;;;;;4173859;28;20791;-59
2021/03/18 02:07:13;;;;;;;17.33;9.40;;;1.50;99.90;;;;;;4173895;28;20270;-61
2021/03/18 02:09:14;;;;;;;14.57;7.57;;;1.50;99.90;;;;;;4173087;28;20761;-53
2021/03/18 02:11:15;;;;;;;12.97;7.67;;;1.50;99.90;;;;;;4174315;28;20257;-57
2021/03/18 02:13:17;;;;;;;18.50;8.57;;;1.50;99.90;;;;;;4172911;28;20258;-57
2021/03/18 02:15:21;;;;;;;15.70;7.83;;;1.50;99.90;;;;;;4173836;28;21245;-57
2021/03/18 02:17:32;;;;;;;14.20;7.70;;;1.50;99.90;;;;;;4170918;28;20774;-58
2021/03/18 02:20:04;;;;;;;15.80;9.05;;;1.50;99.90;;;;;;4173100;28;20282;-57
2021/03/18 02:22:43;;;;;;;17.33;8.97;;;1.50;99.90;;;;;;4171403;28;20045;-60
2021/03/18 02:24:58;;;;;;;14.83;7.40;;;1.50;99.90;;;;;;4156200;28;21145;-60
2021/03/18 02:27:24;;;;;;;15.60;8.40;;;1.50;99.90;;;;;;4173142;28;20726;-59
2021/03/18 02:29:28;;;;;;;14.07;7.57;;;1.40;99.90;;;;;;4172903;28;21043;-60
2021/03/18 02:32:04;;;;;;;15.93;8.53;;;1.50;99.90;;;;;;4173609;28;20316;-58
2021/03/18 02:34:54;;;;;;;16.73;7.63;;;1.40;99.90;;;;;;4172852;28;20301;-57
2021/03/18 02:37:03;;;;;;;18.00;8.53;;;1.40;99.90;;;;;;4173873;28;20348;-59
2021/03/18 02:39:09;;;;;;;12.10;8.00;;;1.50;99.90;;;;;;4172983;28;20258;-57
2021/03/18 02:41:21;;;;;;;15.00;8.20;;;1.40;99.90;;;;;;4172966;28;20351;-58
2021/03/18 02:43:24;;;;;;;14.90;8.27;;;1.40;99.90;;;;;;4172605;28;20278;-58
2021/03/18 02:45:28;;;;;;;17.13;8.60;;;1.50;99.90;;;;;;4173136;28;20282;-60
2021/03/18 02:47:33;;;;;;;14.77;8.43;;;1.50;99.90;;;;;;4181662;28;20269;-59
2021/03/18 02:49:47;;;;;;;16.13;8.17;;;1.40;99.90;;;;;;4190305;28;20744;-54
2021/03/18 02:51:48;;;;;;;17.47;7.63;;;1.40;99.90;;;;;;4188993;28;20953;-59
2021/03/18 02:53:50;;;;;;;16.13;8.67;;;1.40;99.90;;;;;;4189054;28;20250;-57
2021/03/18 02:55:52;;;;;;;15.33;8.20;;;1.40;99.90;;;;;;4188692;28;20323;-56
2021/03/18 02:57:55;;;;;;;15.97;9.10;;;1.40;99.90;;;;;;4189553;28;20687;-58
2021/03/18 02:59:58;;;;;;;20.23;10.03;;;1.40;99.90;;;;;;4188667;28;20277;-55
2021/03/18 03:02:03;;;;;;;18.80;10.07;;;1.40;99.90;;;;;;4172892;28;20764;-60
2021/03/18 03:04:04;;;;;;;15.90;8.87;;;1.40;99.90;;;;;;4172067;28;20282;-59
2021/03/18 03:06:06;;;;;;;18.23;9.57;;;1.40;99.90;;;;;;4173028;28;20270;-60
2021/03/18 03:08:09;;;;;;;18.53;9.97;;;1.40;99.90;;;;;;4172404;28;20269;-57
2021/03/18 03:10:13;;;;;;;18.17;10.30;;;1.30;99.90;;;;;;4172415;28;20270;-58
2021/03/18 03:12:16;;;;;;;19.43;10.57;;;1.30;99.90;;;;;;4172457;28;20332;-52
2021/03/18 03:14:19;;;;;;;17.67;9.73;;;1.30;99.90;;;;;;4172710;28;20258;-58
2021/03/18 03:16:22;;;;;;;22.13;10.23;;;1.30;99.90;;;;;;4172631;28;20669;-58
2021/03/18 03:18:25;;;;;;;19.23;10.03;;;1.30;99.90;;;;;;4172059;28;20282;-56
2021/03/18 03:20:27;;;;;;;20.83;10.70;;;1.30;99.90;;;;;;4172612;28;20738;-56
2021/03/18 03:22:29;;;;;;;19.77;10.33;;;1.30;99.90;;;;;;4172630;28;20665;-61
2021/03/18 03:24:33;;;;;;;23.27;10.90;;;1.30;99.90;;;;;;4171866;28;20766;-59
2021/03/18 03:26:35;;;;;;;16.77;9.60;;;1.30;99.90;;;;;;4171829;28;20274;-61
2021/03/18 03:28:37;;;;;;;17.97;9.67;;;1.30;99.90;;;;;;4172649;28;20266;-58
2021/03/18 03:30:39;;;;;;;16.47;9.17;;;1.30;99.90;;;;;;4171960;28;20278;-55
2021/03/18 03:32:42;;;;;;;17.70;9.40;;;1.30;99.90;;;;;;4172535;28;20274;-57
2021/03/18 03:34:44;;;;;;;17.17;8.97;;;1.30;99.90;;;;;;4171213;28;20285;-58
2021/03/18 03:36:46;;;;;;;18.93;9.50;;;1.30;99.90;;;;;;4173075;28;20758;-58
2021/03/18 03:38:48;;;;;;;18.60;9.53;;;1.30;99.90;;;;;;4171740;28;20285;-60
2021/03/18 03:40:49;;;;;;;20.43;9.83;;;1.30;99.90;;;;;;4172535;28;20258;-57
2021/03/18 03:42:50;;;;;;;17.73;9.00;;;1.30;99.90;;;;;;4171972;28;20304;-56
2021/03/18 03:44:52;;;;;;;18.17;8.27;;;1.30;99.90;;;;;;4171926;28;20266;-55
2021/03/18 03:46:53;;;;;;;18.17;9.93;;;1.30;99.90;;;;;;4172113;28;20301;-59
2021/03/18 03:48:55;;;;;;;17.80;9.00;;;1.30;99.90;;;;;;4172011;28;20259;-57
2021/03/18 03:50:57;;;;;;;15.77;8.87;;;1.30;99.90;;;;;;4172127;28;20258;-58
2021/03/18 03:53:07;;;;;;;15.93;8.80;;;1.30;99.90;;;;;;4171584;28;20266;-53
2021/03/18 03:55:21;;;;;;;20.20;9.38;;;1.30;99.90;;;;;;4172069;28;20266;-57
2021/03/18 03:57:43;;;;;;;18.60;9.33;;;1.30;99.90;;;;;;4171261;28;20045;-55
2021/03/18 03:59:45;;;;;;;18.20;9.70;;;1.20;99.90;;;;;;4172026;28;20285;-58
2021/03/18 04:01:52;;;;;;;16.17;8.97;;;1.20;99.90;;;;;;4171914;28;20273;-60
2021/03/18 04:04:01;;;;;;;18.60;9.20;;;1.20;99.90;;;;;;4171728;28;20784;-57
2021/03/18 04:06:04;;;;;;;15.90;8.50;;;1.30;99.90;;;;;;4174008;28;20297;-59
2021/03/18 04:08:10;;;;;;;15.97;9.07;;;1.30;99.90;;;;;;4174956;28;20266;-58
2021/03/18 04:10:12;;;;;;;16.13;8.33;;;1.30;99.90;;;;;;4175212;28;20262;-57
2021/03/18 04:12:17;;;;;;;15.90;8.37;;;1.30;99.90;;;;;;4175209;28;20310;-59
2021/03/18 04:14:22;;;;;;;16.20;8.57;;;1.30;99.90;;;;;;4175144;28;20266;-57
2021/03/18 04:16:25;;;;;;;17.33;8.87;;;1.40;99.90;;;;;;4175589;28;20258;-60
2021/03/18 04:18:29;;;;;;;20.27;10.40;;;1.40;99.90;;;;;;4174776;28;20347;-58
2021/03/18 04:20:33;;;;;;;16.40;8.50;;;1.40;99.90;;;;;;4175473;28;20332;-53
2021/03/18 04:22:35;;;;;;;19.17;9.63;;;1.40;99.90;;;;;;4174879;28;20316;-59
2021/03/18 04:24:37;;;;;;;16.03;9.20;;;1.40;99.90;;;;;;4175518;28;20278;-58
2021/03/18 04:26:40;;;;;;;17.60;9.23;;;1.30;99.90;;;;;;4173740;28;20324;-60
2021/03/18 04:28:41;;;;;;;17.20;9.87;;;1.30;99.90;;;;;;4175160;28;20278;-54
2021/03/18 04:30:42;;;;;;;17.80;9.07;;;1.30;99.90;;;;;;4178184;28;20351;-57
2021/03/18 04:32:45;;;;;;;16.63;8.73;;;1.30;99.90;;;;;;4191324;28;20273;-60
2021/03/18 04:34:49;;;;;;;17.27;9.17;;;1.30;99.90;;;;;;4191100;28;20330;-58
2021/03/18 04:36:50;;;;;;;17.20;9.30;;;1.30;99.90;;;;;;4191057;28;20337;-57
2021/03/18 04:38:51;;;;;;;17.87;9.47;;;1.30;99.90;;;;;;4190240;28;20393;-58
2021/03/18 04:40:54;;;;;;;18.63;9.27;;;1.20;99.90;;;;;;4191103;28;20989;-58
2021/03/18 04:42:56;;;;;;;17.03;9.27;;;1.20;99.90;;;;;;4191314;28;20262;-59
2021/03/18 04:44:58;;;;;;;18.60;9.67;;;1.20;99.90;;;;;;4190894;28;20358;-59
2021/03/18 04:47:00;;;;;;;19.43;8.90;;;1.20;99.90;;;;;;4191356;28;20328;-58
2021/03/18 04:49:03;;;;;;;15.73;9.20;;;1.20;99.90;;;;;;4191105;28;20246;-58
2021/03/18 04:51:08;;;;;;;17.60;8.77;;;1.20;99.90;;;;;;4191356;28;20660;-55
2021/03/18 04:53:11;;;;;;;15.80;9.17;;;1.20;99.90;;;;;;4190193;28;20330;-59
2021/03/18 04:55:15;;;;;;;18.23;9.50;;;1.20;99.90;;;;;;4191222;28;20323;-56
2021/03/18 04:57:22;;;;;;;19.87;8.70;;;1.20;99.90;;;;;;4190274;28;20282;-57
2021/03/18 04:59:24;;;;;;;18.60;9.33;;;1.30;99.90;;;;;;4191309;28;20672;-54
2021/03/18 05:01:27;;;;;;;16.47;9.10;;;1.30;99.90;;;;;;4188927;28;20431;-53
2021/03/18 05:03:29;;;;;;;22.20;10.13;;;1.30;99.90;;;;;;4191205;28;20277;-57
2021/03/18 05:05:32;;;;;;;19.33;8.80;;;1.20;99.90;;;;;;4190519;28;20269;-57
2021/03/18 05:07:34;;;;;;;16.77;8.83;;;1.30;99.90;;;;;;4177243;28;20688;-57
2021/03/18 05:09:38;;;;;;;18.13;9.57;;;1.30;99.90;;;;;;4173537;28;20704;-56
2021/03/18 05:11:40;;;;;;;17.10;9.40;;;1.30;99.90;;;;;;4174192;28;20316;-52
2021/03/18 05:13:42;;;;;;;17.33;9.87;;;1.30;99.90;;;;;;4173868;28;20258;-55
2021/03/18 05:15:44;;;;;;;21.67;10.70;;;1.30;99.90;;;;;;4186184;28;20350;-57
2021/03/18 05:17:46;;;;;;;17.87;9.17;;;1.30;99.90;;;;;;4175983;28;20335;-60
2021/03/18 05:19:48;;;;;;;17.77;9.93;;;1.30;99.90;;;;;;4174762;28;20278;-55
2021/03/18 05:21:50;;;;;;;19.93;9.93;;;1.30;99.90;;;;;;4173823;28;21225;-63
2021/03/18 05:23:52;;;;;;;18.70;10.73;;;1.30;99.90;;;;;;4173820;28;20270;-57
2021/03/18 05:25:53;;;;;;;21.67;9.77;;;1.40;99.90;;;;;;4173589;28;20282;-58
2021/03/18 05:27:56;;;;;;;20.60;10.37;;;1.40;99.90;;;;;;4173708;28;20408;-59
2021/03/18 05:29:57;;;;;;;18.57;10.13;;;1.40;99.90;;;;;;4173845;28;20262;-59
2021/03/18 05:31:58;;;;;;;17.27;9.73;;;1.40;99.90;;;;;;4172754;28;20278;-55
2021/03/18 05:34:00;;;;;;;20.60;10.73;;;1.40;99.90;;;;;;4182682;28;20285;-59
2021/03/18 05:36:01;;;;;;;18.63;11.20;;;1.40;99.90;;;;;;4188360;28;20307;-58
2021/03/18 05:38:04;;;;;;;17.70;10.47;;;1.50;99.90;;;;;;4181473;28;20309;-56
2021/03/18 05:40:08;;;;;;;16.77;10.00;;;1.50;99.90;;;;;;4177185;28;20316;-59
2021/03/18 05:42:10;;;;;;;15.67;8.90;;;1.50;99.90;;;;;;4183199;28;20282;-58
2021/03/18 05:44:12;;;;;;;23.53;11.07;;;1.40;99.90;;;;;;4173013;28;20254;-59
2021/03/18 05:46:15;;;;;;;18.23;10.37;;;1.50;99.90;;;;;;4190002;28;20315;-58
2021/03/18 05:48:20;;;;;;;18.27;10.03;;;1.50;99.90;;;;;;4188021;28;20273;-59
2021/03/18 05:50:22;;;;;;;18.80;9.60;;;1.50;99.90;;;;;;4177742;28;20388;-57
2021/03/18 05:52:26;;;;;;;16.67;9.00;;;1.60;99.90;;;;;;4184145;28;20686;-61
2021/03/18 05:54:29;;;;;;;21.83;10.67;;;1.60;99.90;;;;;;4190008;28;20265;-58
2021/03/18 05:56:32;;;;;;;43.83;19.03;;;1.60;99.90;;;;;;4188973;28;20338;-59
2021/03/18 05:58:34;;;;;;;45.27;20.30;;;1.60;99.90;;;;;;4184545;28;20298;-60
2021/03/18 06:00:36;;;;;;;41.43;18.00;;;1.60;99.90;;;;;;4176530;28;20670;-59
2021/03/18 06:02:38;;;;;;;42.97;19.00;;;1.60;99.90;;;;;;4189142;28;20281;-59
2021/03/18 06:04:40;;;;;;;36.70;16.03;;;1.60;99.90;;;;;;4172722;28;20274;-60
2021/03/18 06:06:43;;;;;;;31.57;13.97;;;1.50;99.90;;;;;;4172468;28;20286;-64
2021/03/18 06:08:45;;;;;;;25.53;11.80;;;1.60;99.90;;;;;;4183653;28;20324;-63
2021/03/18 06:10:46;;;;;;;27.17;12.83;;;1.60;99.90;;;;;;4179327;28;20277;-62
2021/03/18 06:12:56;;;;;;;22.63;12.17;;;1.50;99.90;;;;;;4177276;28;20326;-62
2021/03/18 06:14:58;;;;;;;21.25;10.40;;;1.60;99.90;;;;;;4173295;28;20333;-60
2021/03/18 06:16:59;;;;;;;20.73;11.77;;;1.50;99.90;;;;;;4171180;28;20079;-63
2021/03/18 06:19:05;;;;;;;27.90;13.83;;;1.50;99.90;;;;;;4170782;28;20309;-62
2021/03/18 06:21:06;;;;;;;22.83;12.53;;;1.60;99.90;;;;;;4173173;28;20729;-65
2021/03/18 06:23:09;;;;;;;24.23;13.37;;;1.60;99.90;;;;;;4182058;28;20261;-60
2021/03/18 06:25:24;;;;;;;29.97;15.63;;;1.60;99.90;;;;;;4188965;28;20640;-63
2021/03/18 06:27:25;;;;;;;24.53;13.23;;;1.60;99.90;;;;;;4188562;28;20258;-61
2021/03/18 06:29:35;;;;;;;35.47;16.87;;;1.70;99.90;;;;;;4188799;28;20265;-64
2021/03/18 06:31:36;;;;;;;26.83;13.23;;;1.70;99.90;;;;;;4188321;28;20311;-61
2021/03/18 06:33:50;;;;;;;28.87;14.40;;;1.80;99.90;;;;;;4188782;28;20815;-62
2021/03/18 06:35:53;;;;;;;41.40;19.27;;;1.80;99.90;;;;;;4188447;28;20291;-62
2021/03/18 06:37:54;;;;;;;39.10;17.97;;;1.80;99.90;;;;;;4189273;28;20261;-62
2021/03/18 06:40:05;;;;;;;44.60;21.80;;;1.80;99.90;;;;;;4189502;28;20314;-61
2021/03/18 06:42:14;;;;;;;37.07;17.40;;;1.80;99.90;;;;;;4188811;28;20318;-61
2021/03/18 06:44:21;;;;;;;32.33;15.73;;;1.80;99.90;;;;;;4188896;28;20254;-61
2021/03/18 06:46:23;;;;;;;32.70;15.97;;;1.80;99.90;;;;;;4189240;28;20973;-61
2021/03/18 06:48:37;;;;;;;31.53;15.17;;;1.80;99.90;;;;;;4188259;28;20761;-61
2021/03/18 06:50:41;;;;;;;32.97;15.63;;;1.90;99.90;;;;;;4189226;28;20322;-61
2021/03/18 06:52:43;;;;;;;29.17;14.63;;;2.00;99.90;;;;;;4187999;28;20261;-63
2021/03/18 06:54:44;;;;;;;28.47;14.60;;;2.00;99.90;;;;;;4188352;28;20347;-62
2021/03/18 06:56:57;;;;;;;31.73;14.77;;;2.00;99.90;;;;;;4188324;28;20278;-62
2021/03/18 06:58:59;;;;;;;36.67;17.50;;;2.00;99.90;;;;;;4188375;28;20343;-62
2021/03/18 07:01:05;;;;;;;39.33;19.00;;;2.10;99.90;;;;;;4188758;28;20277;-62
2021/03/18 07:03:09;;;;;;;31.87;14.80;;;2.10;99.90;;;;;;4188411;28;20311;-62
2021/03/18 07:05:18;;;;;;;31.17;15.60;;;2.10;99.90;;;;;;4188227;28;20273;-62
2021/03/18 07:07:22;;;;;;;36.97;16.93;;;2.10;99.90;;;;;;4187012;28;20269;-62
2021/03/18 07:09:28;;;;;;;30.70;16.13;;;2.10;99.90;;;;;;4189026;28;20277;-62
2021/03/18 07:11:29;;;;;;;43.67;18.53;;;2.20;99.90;;;;;;4187431;28;21072;-62
2021/03/18 07:13:32;;;;;;;39.13;17.63;;;2.20;99.90;;;;;;4188825;28;20319;-64
2021/03/18 07:15:37;;;;;;;30.60;15.17;;;2.20;99.90;;;;;;4187479;28;20270;-62
2021/03/18 07:17:39;;;;;;;25.13;12.50;;;2.20;99.90;;;;;;4189037;28;21110;-61
2021/03/18 07:19:40;;;;;;;27.13;14.07;;;2.20;99.90;;;;;;4187547;28;20339;-61
2021/03/18 07:21:42;;;;;;;28.67;15.13;;;2.20;99.90;;;;;;4189009;28;20269;-63
2021/03/18 07:23:46;;;;;;;24.07;12.77;;;2.20;99.90;;;;;;4187723;28;20664;-62
2021/03/18 07:25:48;;;;;;;28.70;15.73;;;2.20;99.90;;;;;;4188237;28;20323;-63
2021/03/18 07:27:57;;;;;;;29.27;14.97;;;2.20;99.90;;;;;;4188136;28;20327;-62
2021/03/18 07:29:58;;;;;;;29.80;15.17;;;2.20;99.90;;;;;;4188413;28;20273;-62
2021/03/18 07:32:00;;;;;;;29.10;14.03;;;2.30;99.90;;;;;;4187857;28;20273;-62
2021/03/18 07:34:01;;;;;;;33.67;15.83;;;2.30;99.90;;;;;;4188239;28;20257;-62
2021/03/18 07:36:03;;;;;;;31.47;16.77;;;2.40;99.90;;;;;;4188335;28;20774;-60
2021/03/18 07:38:05;;;;;;;31.83;17.13;;;2.40;99.90;;;;;;4188560;28;20261;-61
2021/03/18 07:40:06;;;;;;;27.57;13.87;;;2.40;99.90;;;;;;4188005;28;20269;-61
2021/03/18 07:42:09;;;;;;;32.20;16.70;;;2.30;99.90;;;;;;4187984;28;20262;-61
2021/03/18 07:44:12;;;;;;;28.90;15.47;;;2.40;99.90;;;;;;4188505;28;20326;-60
2021/03/18 07:46:19;;;;;;;26.20;12.93;;;2.40;99.90;;;;;;4187685;28;20326;-62
2021/03/18 07:48:23;;;;;;;26.47;14.13;;;2.50;99.90;;;;;;4188038;28;20307;-61
2021/03/18 07:50:31;;;;;;;28.03;15.27;;;2.50;99.90;;;;;;4187578;28;20265;-62
2021/03/18 07:52:34;;;;;;;26.07;14.97;;;2.60;99.90;;;;;;4188674;28;20274;-62
2021/03/18 07:54:36;;;;;;;30.93;15.80;;;2.70;99.90;;;;;;4187922;28;20261;-64
2021/03/18 07:56:37;;;;;;;33.97;17.43;;;2.80;99.90;;;;;;4188373;28;20315;-63
2021/03/18 07:58:40;;;;;;;24.53;13.40;;;2.90;99.90;;;;;;4187270;28;20890;-63
2021/03/18 08:00:44;;;;;;;25.97;14.80;;;2.90;99.90;;;;;;4188580;28;20335;-62
2021/03/18 08:02:45;;;;;;;24.90;13.17;;;2.90;99.90;;;;;;4187362;28;20335;-62
2021/03/18 08:04:51;;;;;;;28.20;15.93;;;2.90;99.90;;;;;;4188541;28;20327;-64
2021/03/18 08:06:54;;;;;;;27.57;14.17;;;2.80;99.90;;;;;;4187965;28;20819;-64
2021/03/18 08:08:55;;;;;;;21.03;12.00;;;2.90;99.90;;;;;;4188155;28;20723;-61
2021/03/18 08:11:05;;;;;;;24.43;13.73;;;2.90;99.90;;;;;;4187112;28;20265;-62
2021/03/18 08:13:06;;;;;;;62.03;29.77;;;2.90;99.90;;;;;;4188285;28;20668;-63
2021/03/18 08:15:29;;;;;;;36.53;21.20;;;2.90;99.90;;;;;;4187991;28;20464;-62
2021/03/18 08:17:30;;;;;;;27.17;14.73;;;2.90;99.90;;;;;;4187779;28;20318;-63
2021/03/18 08:19:40;;;;;;;21.00;12.87;;;2.90;99.90;;;;;;4187504;28;20933;-63
2021/03/18 08:21:47;;;;;;;22.73;12.83;;;3.00;99.90;;;;;;4188398;28;20269;-60
2021/03/18 08:23:50;;;;;;;24.63;13.53;;;3.00;99.90;;;;;;4187836;28;20315;-62
2021/03/18 08:25:58;;;;;;;20.23;12.03;;;3.00;99.90;;;;;;4187045;28;21134;-63
2021/03/18 08:27:59;;;;;;;23.83;12.47;;;3.00;99.90;;;;;;4186944;28;20951;-61
2021/03/18 08:30:01;;;;;;;24.63;13.03;;;3.10;99.90;;;;;;4187422;28;20293;-63
2021/03/18 08:32:29;;;;;;;22.83;11.97;;;3.20;99.90;;;;;;4188093;28;20269;-61
2021/03/18 08:34:47;;;;;;;22.83;13.30;;;3.30;99.90;;;;;;4177568;28;20335;-61
2021/03/18 08:36:57;;;;;;;28.10;15.33;;;3.30;99.90;;;;;;4187746;28;20261;-62
2021/03/18 08:39:13;;;;;;;20.55;11.55;;;3.20;99.90;;;;;;4188163;28;20309;-64
2021/03/18 08:41:33;;;;;;;19.10;11.17;;;3.20;99.90;;;;;;4187289;28;20487;-62
2021/03/18 08:44:12;;;;;;;19.00;10.70;;;3.20;99.90;;;;;;4186966;28;20265;-62
2021/03/18 08:46:40;;;;;;;18.17;11.20;;;3.20;99.90;;;;;;4187408;28;20262;-62
2021/03/18 08:49:20;;;;;;;22.33;11.67;;;3.20;99.90;;;;;;4187839;28;20280;-62
2021/03/18 08:51:41;;;;;;;25.83;13.07;;;3.10;99.90;;;;;;4187780;28;20273;-61
2021/03/18 08:53:43;;;;;;;;;;;3.20;99.90;;;;;;4190872;28;20334;-62
2021/03/18 08:55:45;;;;;;;21.17;11.63;;;3.20;99.90;;;;;;4190399;28;19908;-61
2021/03/18 08:57:57;;;;;;;15.27;9.60;;;3.20;99.90;;;;;;4190869;28;20269;-63
2021/03/18 09:00:10;;;;;;;19.63;10.47;;;3.20;99.90;;;;;;4190585;28;21198;-62
2021/03/18 09:02:14;;;;;;;19.00;11.80;;;3.20;99.90;;;;;;4190087;28;20277;-63
2021/03/18 09:04:15;;;;;;;23.73;13.30;;;3.20;99.90;;;;;;4190503;28;20312;-62
2021/03/18 09:06:19;;;;;;;23.07;12.93;;;3.30;99.90;;;;;;4190874;28;20270;-62
2021/03/18 09:08:22;;;;;;;26.37;13.20;;;3.20;99.90;;;;;;4190837;28;20281;-62
2021/03/18 09:10:26;;;;;;;18.23;10.63;;;3.20;99.90;;;;;;4190628;28;20327;-62
2021/03/18 09:12:38;;;;;;;20.77;11.57;;;3.20;99.90;;;;;;4189452;28;20334;-61
2021/03/18 09:14:40;;;;;;;26.93;13.17;;;3.20;99.90;;;;;;4190791;28;20278;-62
2021/03/18 09:16:41;;;;;;;24.90;13.07;;;3.30;99.90;;;;;;4189384;28;20291;-62
2021/03/18 09:18:42;;;;;;;19.70;12.53;;;3.30;99.90;;;;;;4190830;28;20815;-62
2021/03/18 09:20:54;;;;;;;23.93;14.40;;;3.30;99.90;;;;;;4189953;28;20266;-63
2021/03/18 09:23:14;;;;;;;24.53;13.23;;;3.30;99.90;;;;;;4190439;28;20258;-62
2021/03/18 09:25:16;;;;;;;22.33;12.57;;;3.50;99.90;;;;;;4189817;28;20303;-62
2021/03/18 09:27:17;;;;;;;21.17;12.40;;;3.50;99.90;;;;;;4189855;28;21110;-63
2021/03/18 09:29:27;;;;;;;22.83;12.73;;;3.50;99.90;;;;;;4189351;28;20315;-62
2021/03/18 09:31:29;;;;;;;19.10;11.48;;;3.50;99.90;;;;;;4189166;28;20876;-61
2021/03/18 09:33:32;;;;;;;18.87;11.43;;;3.60;99.90;;;;;;4189385;28;20221;-64
2021/03/18 09:35:33;;;;;;;19.17;11.73;;;3.80;99.90;;;;;;4190142;28;20318;-65
2021/03/18 09:37:35;;;;;;;18.73;12.20;;;3.90;99.90;;;;;;4190159;28;20648;-61
2021/03/18 09:39:38;;;;;;;19.07;10.47;;;4.10;99.90;;;;;;4190284;28;20297;-61
2021/03/18 09:41:40;;;;;;;22.47;11.63;;;4.20;99.90;;;;;;4189589;28;20288;-63
2021/03/18 09:43:42;;;;;;;21.17;11.20;;;4.20;99.90;;;;;;4189735;28;20281;-63
2021/03/18 09:45:52;;;;;;;19.70;12.07;;;4.30;99.90;;;;;;4189243;28;20327;-61
2021/03/18 09:47:54;;;;;;;17.60;10.85;;;4.40;99.90;;;;;;4190230;28;20265;-62
2021/03/18 09:49:55;;;;;;;18.37;11.13;;;4.40;99.90;;;;;;4189583;28;20054;-63
2021/03/18 09:51:59;;;;;;;23.60;11.17;;;4.50;99.90;;;;;;4189687;28;21005;-62
2021/03/18 09:54:05;;;;;;;14.50;8.97;;;4.50;99.90;;;;;;4189705;28;20315;-63
2021/03/18 09:56:15;;;;;;;16.87;9.67;;;4.40;99.90;;;;;;4188551;28;21558;-61
2021/03/18 09:58:17;;;;;;;20.20;9.60;;;4.50;99.90;;;;;;4187617;28;20316;-62
2021/03/18 10:00:19;;;;;;;19.33;11.20;;;4.40;99.90;;;;;;4186933;28;20927;-62
2021/03/18 10:02:27;;;;;;;16.90;10.67;;;4.60;99.90;;;;;;4189675;28;20741;-62
2021/03/18 10:04:37;;;;;;;16.13;10.27;;;4.60;99.90;;;;;;4186921;28;20269;-60
2021/03/18 10:06:51;;;;;;;17.37;10.23;;;4.70;99.90;;;;;;4189413;28;20394;-59
2021/03/18 10:08:54;;;;;;;17.10;10.30;;;4.80;99.90;;;;;;4189763;28;20277;-61
2021/03/18 10:10:55;;;;;;;19.03;10.83;;;4.80;99.90;;;;;;4189091;28;20351;-61
2021/03/18 10:12:56;;;;;;;18.20;10.73;;;4.90;99.90;;;;;;4188663;28;20322;-61
2021/03/18 10:15:00;;;;;;;19.50;11.33;;;5.10;99.90;;;;;;4189688;28;20319;-61
2021/03/18 10:17:05;;;;;;;18.40;10.07;;;5.20;99.90;;;;;;4188910;28;20270;-61
2021/03/18 10:19:08;;;;;;;18.30;10.73;;;5.30;99.90;;;;;;4189203;28;20301;-62
2021/03/18 10:21:09;;;;;;;15.73;10.40;;;5.50;99.90;;;;;;4187923;28;20615;-61
2021/03/18 10:23:11;;;;;;;16.77;9.73;;;5.70;99.90;;;;;;4189506;28;20800;-62
2021/03/18 10:25:24;;;;;;;20.23;12.20;;;5.70;99.90;;;;;;4188363;28;20664;-61
2021/03/18 10:27:32;;;;;;;14.27;9.67;;;5.60;99.90;;;;;;4189424;28;20337;-60
2021/03/18 10:29:34;;;;;;;14.50;9.53;;;5.50;99.90;;;;;;4188386;28;20048;-61
2021/03/18 10:31:37;;;;;;;15.27;10.13;;;5.50;99.90;;;;;;4189352;28;20266;-62
2021/03/18 10:33:38;;;;;;;14.77;9.60;;;5.40;99.90;;;;;;4188655;28;20376;-61
2021/03/18 10:36:02;;;;;;;12.23;8.03;;;5.40;99.90;;;;;;4188667;28;20307;-61
2021/03/18 10:38:05;;;;;;;11.00;7.90;;;5.40;99.90;;;;;;4188530;28;20036;-62
2021/03/18 10:40:11;;;;;;;13.50;8.17;;;5.40;99.90;;;;;;4188747;28;20354;-63
2021/03/18 10:42:12;;;;;;;15.80;9.57;;;5.40;99.90;;;;;;4188402;28;20029;-61
2021/03/18 10:44:13;;;;;;;14.30;9.00;;;5.40;99.90;;;;;;4188513;28;20278;-62
2021/03/18 10:46:25;;;;;;;15.10;8.43;;;5.40;99.90;;;;;;4188381;28;20323;-65